»·PEaware :: CGQOP L52-L88

CGQOP :: L52-L88

FLIGHT INFORMATION

Flight Status: Arrived
Operator: Unknown
More flights by this operator :: More flights under this callsign
Pilot: Jeremie B. (23254)
Aircraft: CESSNA 172 SKYHAWK
(C172)
More flights by this aircraft type
Origin: L52 Oceano Co
United States
Destination: L88 New Cuyama
United States
More flights between these airports :: More routes between these airports
Route: WYNNR
File this flight plan on PilotEdge
Remarks: cat-1
Altitude:
(Current/Filed)
5,500ft
Speed:
(Current/Filed)
105kts
Departed: 02-Feb-19 07:43 AM
Arrived: 02-Feb-19 08:17 AM
Distance/Time
Traveled:
47nm/0:34
Distance/Time
To Go:
Arrived

Flight Plot

Page will automatically refresh every two minutes.


Map Options




Map Legend


Flown Route
Filed Route
Departure Airport
Arrival Airport
Navaid (VOR, NDB)
Fix

Horizontal Profiles

Position Reports

Time Latitude Longitude Heading Altitude Ground
Speed
02-Feb-19 07:23 35.103552 -120.624283 214 14ft 0kts
02-Feb-19 07:24 35.103552 -120.624284 213 14ft 0kts
02-Feb-19 07:25 35.103552 -120.624284 213 14ft 0kts
02-Feb-19 07:26 35.103552 -120.624284 213 14ft 0kts
02-Feb-19 07:27 35.103552 -120.624284 213 14ft 0kts
02-Feb-19 07:28 35.103552 -120.624284 213 14ft 0kts
02-Feb-19 07:29 35.103552 -120.624284 213 14ft 0kts
02-Feb-19 07:30 35.103669 -120.624883 338 13ft 6kts
02-Feb-19 07:31 35.103645 -120.625111 160 13ft 0kts
02-Feb-19 07:32 35.103645 -120.625111 160 13ft 0kts
02-Feb-19 07:33 35.103645 -120.625111 160 13ft 0kts
02-Feb-19 07:34 35.103645 -120.625111 160 13ft 0kts
02-Feb-19 07:35 35.103644 -120.625111 159 13ft 0kts
02-Feb-19 07:36 35.103644 -120.625111 159 13ft 0kts
02-Feb-19 07:37 35.103644 -120.625111 159 13ft 0kts
02-Feb-19 07:38 35.103644 -120.625111 159 13ft 0kts
02-Feb-19 07:39 35.103644 -120.625111 159 13ft 0kts
02-Feb-19 07:40 35.103594 -120.625088 164 13ft 0kts
02-Feb-19 07:41 35.103555 -120.625083 181 13ft 3kts
02-Feb-19 07:42 35.098323 -120.617183 128 297ft 63kts
02-Feb-19 07:43 35.093708 -120.597427 90 1129ft 62kts
02-Feb-19 07:44 35.093449 -120.576295 88 1886ft 64kts
02-Feb-19 07:45 35.094124 -120.554792 89 2599ft 65kts
02-Feb-19 07:46 35.098518 -120.533736 44 3307ft 69kts
02-Feb-19 07:47 35.099673 -120.515171 114 3935ft 69kts
02-Feb-19 07:48 35.098282 -120.492324 97 4520ft 78kts
02-Feb-19 07:49 35.099459 -120.463552 86 5038ft 89kts
02-Feb-19 07:50 35.101787 -120.432938 86 5463ft 98kts
02-Feb-19 07:51 35.104307 -120.397011 86 5452ft 107kts
02-Feb-19 07:52 35.106813 -120.360491 86 5452ft 107kts
02-Feb-19 07:54 35.109242 -120.324330 87 5453ft 108kts
02-Feb-19 07:55 35.111650 -120.287681 87 5453ft 108kts
02-Feb-19 07:56 35.113801 -120.251000 89 5453ft 108kts
02-Feb-19 07:57 35.111772 -120.215154 118 5455ft 108kts
02-Feb-19 07:58 35.097982 -120.180813 113 5453ft 115kts
02-Feb-19 07:59 35.085545 -120.144753 112 5452ft 115kts
02-Feb-19 08:00 35.073401 -120.108386 112 5452ft 115kts
02-Feb-19 08:01 35.061247 -120.072153 112 5452ft 115kts
02-Feb-19 08:02 35.049026 -120.035880 112 5452ft 115kts
02-Feb-19 08:03 35.038059 -119.999022 109 5452ft 115kts
02-Feb-19 08:04 35.027395 -119.962006 109 5452ft 115kts
02-Feb-19 08:05 35.016699 -119.925053 110 5452ft 115kts
02-Feb-19 08:06 35.005992 -119.888235 110 5452ft 115kts
02-Feb-19 08:07 34.995098 -119.850943 110 5275ft 119kts
02-Feb-19 08:08 34.984531 -119.814768 110 4745ft 103kts
02-Feb-19 08:09 34.975617 -119.784135 110 4211ft 73kts
02-Feb-19 08:10 34.969899 -119.763692 107 3691ft 59kts
02-Feb-19 08:11 34.960016 -119.745326 134 3675ft 66kts
02-Feb-19 08:12 34.946219 -119.727784 140 3834ft 72kts
02-Feb-19 08:12 34.932835 -119.715401 145 3909ft 73kts
02-Feb-19 08:14 34.917195 -119.695771 86 3886ft 76kts
02-Feb-19 08:15 34.932808 -119.693743 287 3216ft 72kts
02-Feb-19 08:15 34.943248 -119.702934 37 2810ft 64kts
02-Feb-19 08:17 34.941071 -119.688598 250 2162ft 6kts
02-Feb-19 08:17 34.943291 -119.690807 27 2154ft 5kts
02-Feb-19 08:18 34.943405 -119.690742 25 2154ft 0kts
02-Feb-19 08:19 34.943405 -119.690742 25 2154ft 0kts
02-Feb-19 08:20 34.943405 -119.690742 25 2154ft 0kts
02-Feb-19 08:21 34.943405 -119.690742 25 2154ft 0kts

Navigation Log

Ident Type
Flight plan parsing failed, navigation log unavailable